sensor_id;sensor_type;location;lat;lon;timestamp;temperature;humidity
69436;SHT31;56625;54.322;18.582;2023-08-30T00:01:09;19.46;87.22
69436;SHT31;56625;54.322;18.582;2023-08-30T00:03:35;19.28;87.37
69436;SHT31;56625;54.322;18.582;2023-08-30T00:06:06;19.16;87.80
69436;SHT31;56625;54.322;18.582;2023-08-30T00:08:33;19.09;88.18
69436;SHT31;56625;54.322;18.582;2023-08-30T00:11:00;19.03;88.42
69436;SHT31;56625;54.322;18.582;2023-08-30T00:13:29;19.02;88.63
69436;SHT31;56625;54.322;18.582;2023-08-30T00:15:58;19.10;89.31
69436;SHT31;56625;54.322;18.582;2023-08-30T00:18:26;19.25;89.66
69436;SHT31;56625;54.322;18.582;2023-08-30T00:20:52;19.27;88.82
69436;SHT31;56625;54.322;18.582;2023-08-30T00:23:19;19.25;88.77
69436;SHT31;56625;54.322;18.582;2023-08-30T00:25:46;19.29;88.66
69436;SHT31;56625;54.322;18.582;2023-08-30T00:28:12;19.19;88.22
69436;SHT31;56625;54.322;18.582;2023-08-30T00:30:39;19.11;88.28
69436;SHT31;56625;54.322;18.582;2023-08-30T00:33:05;19.03;88.41
69436;SHT31;56625;54.322;18.582;2023-08-30T00:35:32;18.97;88.48
69436;SHT31;56625;54.322;18.582;2023-08-30T00:37:58;18.90;88.59
69436;SHT31;56625;54.322;18.582;2023-08-30T00:40:25;18.84;88.74
69436;SHT31;56625;54.322;18.582;2023-08-30T00:42:51;18.82;88.98
69436;SHT31;56625;54.322;18.582;2023-08-30T00:45:18;18.77;88.98
69436;SHT31;56625;54.322;18.582;2023-08-30T00:47:45;18.81;89.38
69436;SHT31;56625;54.322;18.582;2023-08-30T00:50:12;18.85;89.39
69436;SHT31;56625;54.322;18.582;2023-08-30T00:52:40;18.83;89.15
69436;SHT31;56625;54.322;18.582;2023-08-30T00:55:07;18.76;89.13
69436;SHT31;56625;54.322;18.582;2023-08-30T00:57:36;18.71;89.22
69436;SHT31;56625;54.322;18.582;2023-08-30T01:00:03;18.68;89.30
69436;SHT31;56625;54.322;18.582;2023-08-30T01:02:32;18.65;89.44
69436;SHT31;56625;54.322;18.582;2023-08-30T01:05:01;18.69;89.79
69436;SHT31;56625;54.322;18.582;2023-08-30T01:07:31;18.76;89.75
69436;SHT31;56625;54.322;18.582;2023-08-30T01:09:58;18.73;89.46
69436;SHT31;56625;54.322;18.582;2023-08-30T01:12:29;18.69;89.45
69436;SHT31;56625;54.322;18.582;2023-08-30T01:15:06;18.62;89.42
69436;SHT31;56625;54.322;18.582;2023-08-30T01:17:41;18.58;89.58
69436;SHT31;56625;54.322;18.582;2023-08-30T01:20:09;18.53;89.66
69436;SHT31;56625;54.322;18.582;2023-08-30T01:23:00;18.50;89.70
69436;SHT31;56625;54.322;18.582;2023-08-30T01:28:20;18.49;90.03
69436;SHT31;56625;54.322;18.582;2023-08-30T01:30:50;18.53;90.23
69436;SHT31;56625;54.322;18.582;2023-08-30T01:33:20;18.65;90.44
69436;SHT31;56625;54.322;18.582;2023-08-30T01:35:49;18.67;90.15
69436;SHT31;56625;54.322;18.582;2023-08-30T01:38:16;18.63;89.90
69436;SHT31;56625;54.322;18.582;2023-08-30T01:40:43;18.58;89.81
69436;SHT31;56625;54.322;18.582;2023-08-30T01:43:12;18.52;89.76
69436;SHT31;56625;54.322;18.582;2023-08-30T01:45:41;18.51;89.91
69436;SHT31;56625;54.322;18.582;2023-08-30T01:48:11;18.56;90.07
69436;SHT31;56625;54.322;18.582;2023-08-30T01:50:40;18.61;90.10
69436;SHT31;56625;54.322;18.582;2023-08-30T01:53:10;18.58;89.84
69436;SHT31;56625;54.322;18.582;2023-08-30T01:55:39;18.59;89.89
69436;SHT31;56625;54.322;18.582;2023-08-30T01:58:07;18.64;90.00
69436;SHT31;56625;54.322;18.582;2023-08-30T02:00:35;18.75;90.28
69436;SHT31;56625;54.322;18.582;2023-08-30T02:03:12;18.83;90.10
69436;SHT31;56625;54.322;18.582;2023-08-30T02:08:59;18.77;89.34
69436;SHT31;56625;54.322;18.582;2023-08-30T02:11:34;18.67;89.29
69436;SHT31;56625;54.322;18.582;2023-08-30T02:14:04;18.59;89.40
69436;SHT31;56625;54.322;18.582;2023-08-30T02:16:35;18.54;89.52
69436;SHT31;56625;54.322;18.582;2023-08-30T02:19:05;18.50;89.71
69436;SHT31;56625;54.322;18.582;2023-08-30T02:21:32;18.47;89.74
69436;SHT31;56625;54.322;18.582;2023-08-30T02:23:59;18.46;89.81
69436;SHT31;56625;54.322;18.582;2023-08-30T02:26:25;18.42;89.97
69436;SHT31;56625;54.322;18.582;2023-08-30T02:28:52;18.39;89.93
69436;SHT31;56625;54.322;18.582;2023-08-30T02:31:18;18.37;90.01
69436;SHT31;56625;54.322;18.582;2023-08-30T02:33:45;18.35;90.04
69436;SHT31;56625;54.322;18.582;2023-08-30T02:36:11;18.33;90.06
69436;SHT31;56625;54.322;18.582;2023-08-30T02:38:38;18.32;90.08
69436;SHT31;56625;54.322;18.582;2023-08-30T02:41:04;18.32;90.11
69436;SHT31;56625;54.322;18.582;2023-08-30T02:43:31;18.31;90.19
69436;SHT31;56625;54.322;18.582;2023-08-30T02:45:57;18.29;90.23
69436;SHT31;56625;54.322;18.582;2023-08-30T02:48:24;18.28;90.24
69436;SHT31;56625;54.322;18.582;2023-08-30T02:50:50;18.28;90.25
69436;SHT31;56625;54.322;18.582;2023-08-30T02:53:17;18.28;90.24
69436;SHT31;56625;54.322;18.582;2023-08-30T02:55:43;18.26;90.27
69436;SHT31;56625;54.322;18.582;2023-08-30T02:58:10;18.26;90.31
69436;SHT31;56625;54.322;18.582;2023-08-30T03:00:37;18.26;90.32
69436;SHT31;56625;54.322;18.582;2023-08-30T03:03:04;18.26;90.32
69436;SHT31;56625;54.322;18.582;2023-08-30T03:05:31;18.26;90.35
69436;SHT31;56625;54.322;18.582;2023-08-30T03:07:57;18.26;90.36
69436;SHT31;56625;54.322;18.582;2023-08-30T03:10:24;18.25;90.41
69436;SHT31;56625;54.322;18.582;2023-08-30T03:12:50;18.24;90.39
69436;SHT31;56625;54.322;18.582;2023-08-30T03:15:17;18.23;90.38
69436;SHT31;56625;54.322;18.582;2023-08-30T03:17:44;18.23;90.38
69436;SHT31;56625;54.322;18.582;2023-08-30T03:20:10;18.21;90.39
69436;SHT31;56625;54.322;18.582;2023-08-30T03:22:37;18.21;90.35
69436;SHT31;56625;54.322;18.582;2023-08-30T03:25:04;18.20;90.37
69436;SHT31;56625;54.322;18.582;2023-08-30T03:27:32;18.17;90.26
69436;SHT31;56625;54.322;18.582;2023-08-30T03:29:59;18.14;90.21
69436;SHT31;56625;54.322;18.582;2023-08-30T03:32:26;18.12;90.13
69436;SHT31;56625;54.322;18.582;2023-08-30T03:34:52;18.11;90.08
69436;SHT31;56625;54.322;18.582;2023-08-30T03:37:19;18.10;90.01
69436;SHT31;56625;54.322;18.582;2023-08-30T03:39:45;18.08;89.96
69436;SHT31;56625;54.322;18.582;2023-08-30T03:42:12;18.06;89.91
69436;SHT31;56625;54.322;18.582;2023-08-30T03:44:38;18.06;89.92
69436;SHT31;56625;54.322;18.582;2023-08-30T03:47:05;18.03;89.90
69436;SHT31;56625;54.322;18.582;2023-08-30T03:49:32;18.00;89.90
69436;SHT31;56625;54.322;18.582;2023-08-30T03:51:58;17.98;89.91
69436;SHT31;56625;54.322;18.582;2023-08-30T03:54:25;17.98;89.90
69436;SHT31;56625;54.322;18.582;2023-08-30T03:56:52;17.99;89.90
69436;SHT31;56625;54.322;18.582;2023-08-30T03:59:18;17.98;89.90
69436;SHT31;56625;54.322;18.582;2023-08-30T04:01:45;17.98;89.98
69436;SHT31;56625;54.322;18.582;2023-08-30T04:04:11;17.98;89.93
69436;SHT31;56625;54.322;18.582;2023-08-30T04:06:38;17.97;89.96
69436;SHT31;56625;54.322;18.582;2023-08-30T04:09:05;17.97;89.99
69436;SHT31;56625;54.322;18.582;2023-08-30T04:11:31;17.98;89.98
69436;SHT31;56625;54.322;18.582;2023-08-30T04:13:58;17.99;90.00
69436;SHT31;56625;54.322;18.582;2023-08-30T04:16:25;17.99;89.92
69436;SHT31;56625;54.322;18.582;2023-08-30T04:18:51;17.98;89.90
69436;SHT31;56625;54.322;18.582;2023-08-30T04:21:18;17.95;89.90
69436;SHT31;56625;54.322;18.582;2023-08-30T04:23:44;17.92;89.90
69436;SHT31;56625;54.322;18.582;2023-08-30T04:26:11;17.91;89.92
69436;SHT31;56625;54.322;18.582;2023-08-30T04:28:37;17.88;89.99
69436;SHT31;56625;54.322;18.582;2023-08-30T04:31:04;17.87;90.04
69436;SHT31;56625;54.322;18.582;2023-08-30T04:33:30;17.86;90.05
69436;SHT31;56625;54.322;18.582;2023-08-30T04:35:57;17.85;90.08
69436;SHT31;56625;54.322;18.582;2023-08-30T04:38:26;17.84;90.10
69436;SHT31;56625;54.322;18.582;2023-08-30T04:40:56;17.82;90.12
69436;SHT31;56625;54.322;18.582;2023-08-30T04:43:25;17.82;90.19
69436;SHT31;56625;54.322;18.582;2023-08-30T04:45:52;17.79;90.24
69436;SHT31;56625;54.322;18.582;2023-08-30T04:48:18;17.79;90.29
69436;SHT31;56625;54.322;18.582;2023-08-30T04:50:45;17.80;90.27
69436;SHT31;56625;54.322;18.582;2023-08-30T04:53:12;17.80;90.32
69436;SHT31;56625;54.322;18.582;2023-08-30T04:55:38;17.78;90.41
69436;SHT31;56625;54.322;18.582;2023-08-30T04:58:05;17.76;90.47
69436;SHT31;56625;54.322;18.582;2023-08-30T05:00:31;17.75;90.59
69436;SHT31;56625;54.322;18.582;2023-08-30T05:02:58;17.73;90.64
69436;SHT31;56625;54.322;18.582;2023-08-30T05:05:25;17.73;90.69
69436;SHT31;56625;54.322;18.582;2023-08-30T05:07:51;17.73;90.71
69436;SHT31;56625;54.322;18.582;2023-08-30T05:10:18;17.73;90.82
69436;SHT31;56625;54.322;18.582;2023-08-30T05:12:44;17.73;90.83
69436;SHT31;56625;54.322;18.582;2023-08-30T05:15:15;17.71;90.88
69436;SHT31;56625;54.322;18.582;2023-08-30T05:17:42;17.71;90.94
69436;SHT31;56625;54.322;18.582;2023-08-30T05:20:08;17.72;90.99
69436;SHT31;56625;54.322;18.582;2023-08-30T05:22:35;17.71;90.92
69436;SHT31;56625;54.322;18.582;2023-08-30T05:25:02;17.74;90.93
69436;SHT31;56625;54.322;18.582;2023-08-30T05:27:29;17.74;90.95
69436;SHT31;56625;54.322;18.582;2023-08-30T05:29:56;17.74;90.91
69436;SHT31;56625;54.322;18.582;2023-08-30T05:32:22;17.76;90.90
69436;SHT31;56625;54.322;18.582;2023-08-30T05:34:49;17.80;90.92
69436;SHT31;56625;54.322;18.582;2023-08-30T05:37:15;17.81;90.83
69436;SHT31;56625;54.322;18.582;2023-08-30T05:39:42;17.85;90.82
69436;SHT31;56625;54.322;18.582;2023-08-30T05:42:08;17.86;90.73
69436;SHT31;56625;54.322;18.582;2023-08-30T05:44:35;17.86;90.72
69436;SHT31;56625;54.322;18.582;2023-08-30T05:47:01;17.87;90.71
69436;SHT31;56625;54.322;18.582;2023-08-30T05:49:28;17.88;90.61
69436;SHT31;56625;54.322;18.582;2023-08-30T05:51:54;17.89;90.56
69436;SHT31;56625;54.322;18.582;2023-08-30T05:54:21;17.89;90.46
69436;SHT31;56625;54.322;18.582;2023-08-30T05:56:47;17.89;90.42
69436;SHT31;56625;54.322;18.582;2023-08-30T05:59:14;17.90;90.38
69436;SHT31;56625;54.322;18.582;2023-08-30T06:01:41;17.92;90.28
69436;SHT31;56625;54.322;18.582;2023-08-30T06:04:07;17.92;90.00
69436;SHT31;56625;54.322;18.582;2023-08-30T06:06:34;17.91;89.86
69436;SHT31;56625;54.322;18.582;2023-08-30T06:09:00;17.90;89.79
69436;SHT31;56625;54.322;18.582;2023-08-30T06:11:27;17.91;89.74
69436;SHT31;56625;54.322;18.582;2023-08-30T06:13:54;17.92;89.58
69436;SHT31;56625;54.322;18.582;2023-08-30T06:16:21;17.93;89.60
69436;SHT31;56625;54.322;18.582;2023-08-30T06:18:47;17.97;89.54
69436;SHT31;56625;54.322;18.582;2023-08-30T06:21:14;17.99;89.43
69436;SHT31;56625;54.322;18.582;2023-08-30T06:23:40;18.02;89.32
69436;SHT31;56625;54.322;18.582;2023-08-30T06:26:07;18.04;89.23
69436;SHT31;56625;54.322;18.582;2023-08-30T06:28:33;18.06;89.15
69436;SHT31;56625;54.322;18.582;2023-08-30T06:31:00;18.09;89.02
69436;SHT31;56625;54.322;18.582;2023-08-30T06:33:27;18.11;88.96
69436;SHT31;56625;54.322;18.582;2023-08-30T06:35:53;18.15;88.86
69436;SHT31;56625;54.322;18.582;2023-08-30T06:38:21;18.16;88.57
69436;SHT31;56625;54.322;18.582;2023-08-30T06:40:47;18.19;88.40
69436;SHT31;56625;54.322;18.582;2023-08-30T06:43:15;18.21;88.35
69436;SHT31;56625;54.322;18.582;2023-08-30T06:45:42;18.22;88.21
69436;SHT31;56625;54.322;18.582;2023-08-30T06:48:09;18.24;88.13
69436;SHT31;56625;54.322;18.582;2023-08-30T06:50:36;18.25;88.11
69436;SHT31;56625;54.322;18.582;2023-08-30T06:53:03;18.27;87.97
69436;SHT31;56625;54.322;18.582;2023-08-30T06:55:30;18.28;87.84
69436;SHT31;56625;54.322;18.582;2023-08-30T06:57:58;18.29;87.88
69436;SHT31;56625;54.322;18.582;2023-08-30T07:00:25;18.33;87.90
69436;SHT31;56625;54.322;18.582;2023-08-30T07:02:52;18.37;87.79
69436;SHT31;56625;54.322;18.582;2023-08-30T07:05:19;18.38;87.65
69436;SHT31;56625;54.322;18.582;2023-08-30T07:07:45;18.44;87.90
69436;SHT31;56625;54.322;18.582;2023-08-30T07:10:12;18.55;88.07
69436;SHT31;56625;54.322;18.582;2023-08-30T07:12:38;18.68;87.75
69436;SHT31;56625;54.322;18.582;2023-08-30T07:15:05;18.76;87.62
69436;SHT31;56625;54.322;18.582;2023-08-30T07:17:33;18.88;87.60
69436;SHT31;56625;54.322;18.582;2023-08-30T07:20:16;18.98;87.19
69436;SHT31;56625;54.322;18.582;2023-08-30T07:22:43;19.01;86.72
69436;SHT31;56625;54.322;18.582;2023-08-30T07:25:09;19.05;86.71
69436;SHT31;56625;54.322;18.582;2023-08-30T07:27:36;19.14;86.74
69436;SHT31;56625;54.322;18.582;2023-08-30T07:30:03;19.20;86.14
69436;SHT31;56625;54.322;18.582;2023-08-30T07:32:30;19.21;86.00
69436;SHT31;56625;54.322;18.582;2023-08-30T07:34:57;19.28;85.94
69436;SHT31;56625;54.322;18.582;2023-08-30T07:37:24;19.28;85.27
69436;SHT31;56625;54.322;18.582;2023-08-30T07:39:51;19.25;85.23
69436;SHT31;56625;54.322;18.582;2023-08-30T07:42:18;19.23;85.08
69436;SHT31;56625;54.322;18.582;2023-08-30T07:44:45;19.19;84.86
69436;SHT31;56625;54.322;18.582;2023-08-30T07:47:11;19.15;84.71
69436;SHT31;56625;54.322;18.582;2023-08-30T07:49:38;19.12;84.93
69436;SHT31;56625;54.322;18.582;2023-08-30T07:52:04;19.08;84.86
69436;SHT31;56625;54.322;18.582;2023-08-30T07:54:32;19.04;85.04
69436;SHT31;56625;54.322;18.582;2023-08-30T07:56:58;18.99;84.91
69436;SHT31;56625;54.322;18.582;2023-08-30T07:59:25;18.95;85.08
69436;SHT31;56625;54.322;18.582;2023-08-30T08:01:51;18.94;84.80
69436;SHT31;56625;54.322;18.582;2023-08-30T08:04:18;18.93;84.86
69436;SHT31;56625;54.322;18.582;2023-08-30T08:06:44;18.93;84.93
69436;SHT31;56625;54.322;18.582;2023-08-30T08:09:22;19.00;85.32
69436;SHT31;56625;54.322;18.582;2023-08-30T08:11:49;19.09;85.26
69436;SHT31;56625;54.322;18.582;2023-08-30T08:14:16;19.17;85.01
69436;SHT31;56625;54.322;18.582;2023-08-30T08:16:43;19.24;84.77
69436;SHT31;56625;54.322;18.582;2023-08-30T08:19:09;19.33;84.68
69436;SHT31;56625;54.322;18.582;2023-08-30T08:21:36;19.41;84.47
69436;SHT31;56625;54.322;18.582;2023-08-30T08:24:03;19.50;84.35
69436;SHT31;56625;54.322;18.582;2023-08-30T08:26:29;19.58;84.05
69436;SHT31;56625;54.322;18.582;2023-08-30T08:28:56;19.64;83.67
69436;SHT31;56625;54.322;18.582;2023-08-30T08:31:23;19.67;83.40
69436;SHT31;56625;54.322;18.582;2023-08-30T08:33:50;19.72;83.60
69436;SHT31;56625;54.322;18.582;2023-08-30T08:36:31;19.78;83.51
69436;SHT31;56625;54.322;18.582;2023-08-30T08:38:58;19.83;83.25
69436;SHT31;56625;54.322;18.582;2023-08-30T08:41:26;19.85;82.45
69436;SHT31;56625;54.322;18.582;2023-08-30T08:44:11;19.69;81.04
69436;SHT31;56625;54.322;18.582;2023-08-30T08:46:39;19.54;81.33
69436;SHT31;56625;54.322;18.582;2023-08-30T08:51:41;19.42;82.05
69436;SHT31;56625;54.322;18.582;2023-08-30T08:54:09;19.47;82.31
69436;SHT31;56625;54.322;18.582;2023-08-30T08:56:37;19.57;82.07
69436;SHT31;56625;54.322;18.582;2023-08-30T08:59:05;19.68;81.80
69436;SHT31;56625;54.322;18.582;2023-08-30T09:01:34;19.83;81.73
69436;SHT31;56625;54.322;18.582;2023-08-30T09:04:05;19.98;81.54
69436;SHT31;56625;54.322;18.582;2023-08-30T09:06:37;20.06;80.50
69436;SHT31;56625;54.322;18.582;2023-08-30T09:09:06;20.03;79.97
69436;SHT31;56625;54.322;18.582;2023-08-30T09:11:34;19.99;79.66
69436;SHT31;56625;54.322;18.582;2023-08-30T09:14:17;19.98;79.96
69436;SHT31;56625;54.322;18.582;2023-08-30T09:16:58;19.94;79.75
69436;SHT31;56625;54.322;18.582;2023-08-30T09:19:29;19.94;79.86
69436;SHT31;56625;54.322;18.582;2023-08-30T09:21:57;20.00;80.27
69436;SHT31;56625;54.322;18.582;2023-08-30T09:24:25;20.05;79.98
69436;SHT31;56625;54.322;18.582;2023-08-30T09:26:52;20.06;79.96
69436;SHT31;56625;54.322;18.582;2023-08-30T09:29:21;20.05;79.41
69436;SHT31;56625;54.322;18.582;2023-08-30T09:31:52;19.95;79.27
69436;SHT31;56625;54.322;18.582;2023-08-30T09:34:25;19.85;79.26
69436;SHT31;56625;54.322;18.582;2023-08-30T09:36:53;19.73;79.53
69436;SHT31;56625;54.322;18.582;2023-08-30T09:39:21;19.60;79.94
69436;SHT31;56625;54.322;18.582;2023-08-30T09:41:48;19.52;80.09
69436;SHT31;56625;54.322;18.582;2023-08-30T09:44:17;19.40;80.50
69436;SHT31;56625;54.322;18.582;2023-08-30T09:46:51;19.33;80.97
69436;SHT31;56625;54.322;18.582;2023-08-30T09:49:21;19.26;81.49
69436;SHT31;56625;54.322;18.582;2023-08-30T09:51:51;19.21;81.90
69436;SHT31;56625;54.322;18.582;2023-08-30T09:54:26;19.19;82.32
69436;SHT31;56625;54.322;18.582;2023-08-30T09:57:05;19.21;82.52
69436;SHT31;56625;54.322;18.582;2023-08-30T09:59:32;19.19;82.37
69436;SHT31;56625;54.322;18.582;2023-08-30T10:01:59;19.14;82.59
69436;SHT31;56625;54.322;18.582;2023-08-30T10:04:26;19.08;82.78
69436;SHT31;56625;54.322;18.582;2023-08-30T10:06:55;19.06;83.07
69436;SHT31;56625;54.322;18.582;2023-08-30T10:09:26;19.05;83.05
69436;SHT31;56625;54.322;18.582;2023-08-30T10:11:57;19.05;83.18
69436;SHT31;56625;54.322;18.582;2023-08-30T10:14:24;19.07;83.44
69436;SHT31;56625;54.322;18.582;2023-08-30T10:16:51;19.08;83.35
69436;SHT31;56625;54.322;18.582;2023-08-30T10:19:28;19.12;83.46
69436;SHT31;56625;54.322;18.582;2023-08-30T10:22:03;19.17;83.35
69436;SHT31;56625;54.322;18.582;2023-08-30T10:24:36;19.15;82.72
69436;SHT31;56625;54.322;18.582;2023-08-30T10:27:36;19.09;82.72
69436;SHT31;56625;54.322;18.582;2023-08-30T10:30:08;19.07;82.94
69436;SHT31;56625;54.322;18.582;2023-08-30T10:32:41;19.13;83.06
69436;SHT31;56625;54.322;18.582;2023-08-30T10:35:17;19.17;82.52
69436;SHT31;56625;54.322;18.582;2023-08-30T10:37:55;19.16;82.61
69436;SHT31;56625;54.322;18.582;2023-08-30T10:40:23;19.17;82.38
69436;SHT31;56625;54.322;18.582;2023-08-30T10:42:59;19.09;82.28
69436;SHT31;56625;54.322;18.582;2023-08-30T10:45:28;19.01;82.42
69436;SHT31;56625;54.322;18.582;2023-08-30T10:47:56;18.94;82.44
69436;SHT31;56625;54.322;18.582;2023-08-30T10:50:33;18.89;82.62
69436;SHT31;56625;54.322;18.582;2023-08-30T10:53:00;18.84;82.68
69436;SHT31;56625;54.322;18.582;2023-08-30T10:55:27;18.83;82.70
69436;SHT31;56625;54.322;18.582;2023-08-30T10:58:00;18.81;82.74
69436;SHT31;56625;54.322;18.582;2023-08-30T11:00:30;18.84;82.69
69436;SHT31;56625;54.322;18.582;2023-08-30T11:02:57;18.88;82.64
69436;SHT31;56625;54.322;18.582;2023-08-30T11:05:26;18.91;82.50
69436;SHT31;56625;54.322;18.582;2023-08-30T11:07:54;18.97;82.57
69436;SHT31;56625;54.322;18.582;2023-08-30T11:10:20;19.03;82.28
69436;SHT31;56625;54.322;18.582;2023-08-30T11:12:48;19.03;81.98
69436;SHT31;56625;54.322;18.582;2023-08-30T11:15:15;19.06;82.07
69436;SHT31;56625;54.322;18.582;2023-08-30T11:17:42;19.08;82.06
69436;SHT31;56625;54.322;18.582;2023-08-30T11:20:14;19.09;81.97
69436;SHT31;56625;54.322;18.582;2023-08-30T11:22:46;19.13;81.94
69436;SHT31;56625;54.322;18.582;2023-08-30T11:25:14;19.14;81.68
69436;SHT31;56625;54.322;18.582;2023-08-30T11:27:42;19.11;81.51
69436;SHT31;56625;54.322;18.582;2023-08-30T11:30:10;19.12;81.53
69436;SHT31;56625;54.322;18.582;2023-08-30T11:32:38;19.18;81.78
69436;SHT31;56625;54.322;18.582;2023-08-30T11:35:09;19.24;81.62
69436;SHT31;56625;54.322;18.582;2023-08-30T11:37:35;19.34;81.40
69436;SHT31;56625;54.322;18.582;2023-08-30T11:40:02;19.39;81.00
69436;SHT31;56625;54.322;18.582;2023-08-30T11:42:32;19.42;81.21
69436;SHT31;56625;54.322;18.582;2023-08-30T11:45:00;19.46;80.82
69436;SHT31;56625;54.322;18.582;2023-08-30T11:47:28;19.45;80.66
69436;SHT31;56625;54.322;18.582;2023-08-30T11:49:55;19.44;80.76
69436;SHT31;56625;54.322;18.582;2023-08-30T11:52:24;19.47;80.93
69436;SHT31;56625;54.322;18.582;2023-08-30T11:54:52;19.51;80.98
69436;SHT31;56625;54.322;18.582;2023-08-30T11:57:20;19.58;80.92
69436;SHT31;56625;54.322;18.582;2023-08-30T11:59:47;19.65;80.62
69436;SHT31;56625;54.322;18.582;2023-08-30T12:02:16;19.68;80.42
69436;SHT31;56625;54.322;18.582;2023-08-30T12:04:45;19.72;80.10
69436;SHT31;56625;54.322;18.582;2023-08-30T12:07:20;19.74;80.12
69436;SHT31;56625;54.322;18.582;2023-08-30T12:10:03;19.77;79.93
69436;SHT31;56625;54.322;18.582;2023-08-30T12:12:36;19.74;79.82
69436;SHT31;56625;54.322;18.582;2023-08-30T12:15:10;19.72;79.71
69436;SHT31;56625;54.322;18.582;2023-08-30T12:17:37;19.66;79.65
69436;SHT31;56625;54.322;18.582;2023-08-30T12:20:04;19.62;79.63
69436;SHT31;56625;54.322;18.582;2023-08-30T12:22:38;19.58;79.72
69436;SHT31;56625;54.322;18.582;2023-08-30T12:25:18;19.58;79.89
69436;SHT31;56625;54.322;18.582;2023-08-30T12:27:47;19.52;79.38
69436;SHT31;56625;54.322;18.582;2023-08-30T12:30:14;19.49;79.39
69436;SHT31;56625;54.322;18.582;2023-08-30T12:32:45;19.48;79.56
69436;SHT31;56625;54.322;18.582;2023-08-30T12:35:13;19.49;79.69
69436;SHT31;56625;54.322;18.582;2023-08-30T12:37:40;19.50;79.52
69436;SHT31;56625;54.322;18.582;2023-08-30T12:40:06;19.52;79.61
69436;SHT31;56625;54.322;18.582;2023-08-30T12:42:34;19.56;79.84
69436;SHT31;56625;54.322;18.582;2023-08-30T12:45:00;19.57;79.62
69436;SHT31;56625;54.322;18.582;2023-08-30T12:47:27;19.56;79.58
69436;SHT31;56625;54.322;18.582;2023-08-30T12:49:55;19.56;79.67
69436;SHT31;56625;54.322;18.582;2023-08-30T12:52:21;19.53;79.06
69436;SHT31;56625;54.322;18.582;2023-08-30T12:54:48;19.47;79.22
69436;SHT31;56625;54.322;18.582;2023-08-30T12:57:14;19.43;79.55
69436;SHT31;56625;54.322;18.582;2023-08-30T12:59:41;19.44;79.62
69436;SHT31;56625;54.322;18.582;2023-08-30T13:02:07;19.43;79.52
69436;SHT31;56625;54.322;18.582;2023-08-30T13:04:34;19.44;79.47
69436;SHT31;56625;54.322;18.582;2023-08-30T13:07:04;19.43;79.45
69436;SHT31;56625;54.322;18.582;2023-08-30T13:09:31;19.43;79.42
69436;SHT31;56625;54.322;18.582;2023-08-30T13:11:57;19.41;79.49
69436;SHT31;56625;54.322;18.582;2023-08-30T13:14:24;19.45;79.63
69436;SHT31;56625;54.322;18.582;2023-08-30T13:16:51;19.48;79.48
69436;SHT31;56625;54.322;18.582;2023-08-30T13:19:17;19.52;79.49
69436;SHT31;56625;54.322;18.582;2023-08-30T13:21:44;19.54;79.35
69436;SHT31;56625;54.322;18.582;2023-08-30T13:24:10;19.54;79.37
69436;SHT31;56625;54.322;18.582;2023-08-30T13:26:37;19.52;79.16
69436;SHT31;56625;54.322;18.582;2023-08-30T13:29:04;19.45;78.92
69436;SHT31;56625;54.322;18.582;2023-08-30T13:31:30;19.41;79.28
69436;SHT31;56625;54.322;18.582;2023-08-30T13:33:57;19.38;79.31
69436;SHT31;56625;54.322;18.582;2023-08-30T13:36:24;19.32;79.42
69436;SHT31;56625;54.322;18.582;2023-08-30T13:38:53;19.28;79.76
69436;SHT31;56625;54.322;18.582;2023-08-30T13:41:20;19.26;80.04
69436;SHT31;56625;54.322;18.582;2023-08-30T13:43:46;19.25;80.11
69436;SHT31;56625;54.322;18.582;2023-08-30T13:46:13;19.23;80.42
69436;SHT31;56625;54.322;18.582;2023-08-30T13:48:39;19.22;80.71
69436;SHT31;56625;54.322;18.582;2023-08-30T13:51:06;19.20;80.93
69436;SHT31;56625;54.322;18.582;2023-08-30T13:53:32;19.15;81.24
69436;SHT31;56625;54.322;18.582;2023-08-30T13:55:59;19.10;81.73
69436;SHT31;56625;54.322;18.582;2023-08-30T13:58:25;19.12;82.00
69436;SHT31;56625;54.322;18.582;2023-08-30T14:00:52;19.11;81.97
69436;SHT31;56625;54.322;18.582;2023-08-30T14:03:19;19.07;81.84
69436;SHT31;56625;54.322;18.582;2023-08-30T14:05:47;19.10;81.82
69436;SHT31;56625;54.322;18.582;2023-08-30T14:08:13;19.11;81.64
69436;SHT31;56625;54.322;18.582;2023-08-30T14:10:40;19.18;81.69
69436;SHT31;56625;54.322;18.582;2023-08-30T14:13:06;19.29;81.46
69436;SHT31;56625;54.322;18.582;2023-08-30T14:15:33;19.39;81.30
69436;SHT31;56625;54.322;18.582;2023-08-30T14:18:00;19.48;81.14
69436;SHT31;56625;54.322;18.582;2023-08-30T14:20:27;19.58;80.84
69436;SHT31;56625;54.322;18.582;2023-08-30T14:22:54;19.64;80.26
69436;SHT31;56625;54.322;18.582;2023-08-30T14:25:21;19.69;80.16
69436;SHT31;56625;54.322;18.582;2023-08-30T14:27:47;19.73;80.15
69436;SHT31;56625;54.322;18.582;2023-08-30T14:30:14;19.81;80.19
69436;SHT31;56625;54.322;18.582;2023-08-30T14:32:42;19.84;79.22
69436;SHT31;56625;54.322;18.582;2023-08-30T14:35:08;19.81;78.75
69436;SHT31;56625;54.322;18.582;2023-08-30T14:37:35;19.81;78.89
69436;SHT31;56625;54.322;18.582;2023-08-30T14:40:02;19.82;78.43
69436;SHT31;56625;54.322;18.582;2023-08-30T14:42:30;19.81;78.43
69436;SHT31;56625;54.322;18.582;2023-08-30T14:44:58;19.80;78.47
69436;SHT31;56625;54.322;18.582;2023-08-30T14:47:24;19.86;78.60
69436;SHT31;56625;54.322;18.582;2023-08-30T14:49:52;19.91;78.49
69436;SHT31;56625;54.322;18.582;2023-08-30T14:52:18;19.92;78.13
69436;SHT31;56625;54.322;18.582;2023-08-30T14:54:45;19.88;77.80
69436;SHT31;56625;54.322;18.582;2023-08-30T14:57:11;19.81;78.00
69436;SHT31;56625;54.322;18.582;2023-08-30T14:59:38;19.80;78.12
69436;SHT31;56625;54.322;18.582;2023-08-30T15:02:05;19.79;78.06
69436;SHT31;56625;54.322;18.582;2023-08-30T15:04:32;19.78;78.26
69436;SHT31;56625;54.322;18.582;2023-08-30T15:06:59;19.79;78.31
69436;SHT31;56625;54.322;18.582;2023-08-30T15:09:25;19.75;78.06
69436;SHT31;56625;54.322;18.582;2023-08-30T15:11:52;19.68;78.10
69436;SHT31;56625;54.322;18.582;2023-08-30T15:14:18;19.61;78.26
69436;SHT31;56625;54.322;18.582;2023-08-30T15:16:45;19.58;78.48
69436;SHT31;56625;54.322;18.582;2023-08-30T15:19:11;19.61;78.73
69436;SHT31;56625;54.322;18.582;2023-08-30T15:21:38;19.65;78.83
69436;SHT31;56625;54.322;18.582;2023-08-30T15:24:04;19.70;78.78
69436;SHT31;56625;54.322;18.582;2023-08-30T15:26:32;19.75;78.81
69436;SHT31;56625;54.322;18.582;2023-08-30T15:28:59;19.78;78.77